sensor_id;sensor_type;location;lat;lon;timestamp;P1;durP1;ratioP1;P2;durP2;ratioP2
20154;SDS011;10238;49.556;10.956;2023-06-22T00:01:45;11.48;;;10.38;;
20154;SDS011;10238;49.556;10.956;2023-06-22T00:04:34;11.38;;;10.38;;
20154;SDS011;10238;49.556;10.956;2023-06-22T00:07:22;11.18;;;10.23;;
20154;SDS011;10238;49.556;10.956;2023-06-22T00:10:09;11.98;;;11.00;;
20154;SDS011;10238;49.556;10.956;2023-06-22T00:12:57;12.48;;;11.38;;
20154;SDS011;10238;49.556;10.956;2023-06-22T00:15:45;12.77;;;11.60;;
20154;SDS011;10238;49.556;10.956;2023-06-22T00:18:33;13.40;;;12.25;;
20154;SDS011;10238;49.556;10.956;2023-06-22T00:21:22;13.93;;;12.80;;
20154;SDS011;10238;49.556;10.956;2023-06-22T00:24:09;14.60;;;13.27;;
20154;SDS011;10238;49.556;10.956;2023-06-22T00:26:57;13.48;;;12.27;;
20154;SDS011;10238;49.556;10.956;2023-06-22T00:29:44;12.63;;;11.48;;
20154;SDS011;10238;49.556;10.956;2023-06-22T00:32:32;13.30;;;11.93;;
20154;SDS011;10238;49.556;10.956;2023-06-22T00:35:19;12.10;;;10.98;;
20154;SDS011;10238;49.556;10.956;2023-06-22T00:38:09;13.00;;;11.60;;
20154;SDS011;10238;49.556;10.956;2023-06-22T00:40:57;11.63;;;9.90;;
20154;SDS011;10238;49.556;10.956;2023-06-22T00:43:44;11.52;;;10.48;;
20154;SDS011;10238;49.556;10.956;2023-06-22T00:46:32;11.32;;;10.23;;
20154;SDS011;10238;49.556;10.956;2023-06-22T00:49:20;10.23;;;9.32;;
20154;SDS011;10238;49.556;10.956;2023-06-22T00:55:23;11.10;;;10.10;;
20154;SDS011;10238;49.556;10.956;2023-06-22T00:58:12;11.13;;;10.32;;
20154;SDS011;10238;49.556;10.956;2023-06-22T01:01:00;11.68;;;10.68;;
20154;SDS011;10238;49.556;10.956;2023-06-22T01:03:48;12.25;;;11.15;;
20154;SDS011;10238;49.556;10.956;2023-06-22T01:06:38;11.63;;;10.48;;
20154;SDS011;10238;49.556;10.956;2023-06-22T01:09:41;11.18;;;10.02;;
20154;SDS011;10238;49.556;10.956;2023-06-22T01:12:40;11.70;;;10.32;;
20154;SDS011;10238;49.556;10.956;2023-06-22T01:15:33;12.13;;;10.88;;
20154;SDS011;10238;49.556;10.956;2023-06-22T01:18:26;11.38;;;10.27;;
20154;SDS011;10238;49.556;10.956;2023-06-22T01:21:19;11.00;;;9.90;;
20154;SDS011;10238;49.556;10.956;2023-06-22T01:24:15;10.30;;;9.38;;
20154;SDS011;10238;49.556;10.956;2023-06-22T01:27:15;11.50;;;10.43;;
20154;SDS011;10238;49.556;10.956;2023-06-22T01:30:19;10.20;;;8.82;;
20154;SDS011;10238;49.556;10.956;2023-06-22T01:33:09;10.07;;;8.90;;
20154;SDS011;10238;49.556;10.956;2023-06-22T01:36:00;9.95;;;8.95;;
20154;SDS011;10238;49.556;10.956;2023-06-22T01:38:49;11.13;;;8.77;;
20154;SDS011;10238;49.556;10.956;2023-06-22T01:41:39;9.70;;;8.70;;
20154;SDS011;10238;49.556;10.956;2023-06-22T01:44:30;10.35;;;9.05;;
20154;SDS011;10238;49.556;10.956;2023-06-22T01:47:20;10.05;;;8.20;;
20154;SDS011;10238;49.556;10.956;2023-06-22T01:50:09;10.38;;;8.88;;
20154;SDS011;10238;49.556;10.956;2023-06-22T01:52:58;9.30;;;8.40;;
20154;SDS011;10238;49.556;10.956;2023-06-22T01:55:45;9.40;;;8.40;;
20154;SDS011;10238;49.556;10.956;2023-06-22T01:58:33;10.05;;;9.00;;
20154;SDS011;10238;49.556;10.956;2023-06-22T02:01:28;10.48;;;9.20;;
20154;SDS011;10238;49.556;10.956;2023-06-22T02:04:30;10.50;;;9.00;;
20154;SDS011;10238;49.556;10.956;2023-06-22T02:07:23;10.20;;;9.15;;
20154;SDS011;10238;49.556;10.956;2023-06-22T02:10:19;10.68;;;9.68;;
20154;SDS011;10238;49.556;10.956;2023-06-22T02:13:09;10.85;;;9.80;;
20154;SDS011;10238;49.556;10.956;2023-06-22T02:16:00;10.77;;;9.68;;
20154;SDS011;10238;49.556;10.956;2023-06-22T02:18:49;11.57;;;10.43;;
20154;SDS011;10238;49.556;10.956;2023-06-22T02:21:39;11.20;;;10.20;;
20154;SDS011;10238;49.556;10.956;2023-06-22T02:24:27;11.68;;;10.55;;
20154;SDS011;10238;49.556;10.956;2023-06-22T02:27:16;11.73;;;10.57;;
20154;SDS011;10238;49.556;10.956;2023-06-22T02:30:04;11.70;;;10.50;;
20154;SDS011;10238;49.556;10.956;2023-06-22T02:32:53;11.88;;;10.63;;
20154;SDS011;10238;49.556;10.956;2023-06-22T02:35:45;11.75;;;10.75;;
20154;SDS011;10238;49.556;10.956;2023-06-22T02:38:36;13.10;;;11.93;;
20154;SDS011;10238;49.556;10.956;2023-06-22T02:41:23;23.67;;;21.92;;
20154;SDS011;10238;49.556;10.956;2023-06-22T02:44:11;28.95;;;27.05;;
20154;SDS011;10238;49.556;10.956;2023-06-22T02:46:58;28.23;;;26.30;;
20154;SDS011;10238;49.556;10.956;2023-06-22T02:49:46;30.60;;;28.35;;
20154;SDS011;10238;49.556;10.956;2023-06-22T02:52:34;30.92;;;28.63;;
20154;SDS011;10238;49.556;10.956;2023-06-22T02:55:23;29.00;;;27.08;;
20154;SDS011;10238;49.556;10.956;2023-06-22T02:58:11;27.88;;;25.98;;
20154;SDS011;10238;49.556;10.956;2023-06-22T03:00:58;26.40;;;24.55;;
20154;SDS011;10238;49.556;10.956;2023-06-22T03:03:50;26.38;;;24.58;;
20154;SDS011;10238;49.556;10.956;2023-06-22T03:06:38;28.60;;;26.60;;
20154;SDS011;10238;49.556;10.956;2023-06-22T03:09:26;25.83;;;23.90;;
20154;SDS011;10238;49.556;10.956;2023-06-22T03:12:16;24.05;;;22.38;;
20154;SDS011;10238;49.556;10.956;2023-06-22T03:15:04;25.98;;;24.00;;
20154;SDS011;10238;49.556;10.956;2023-06-22T03:17:53;21.50;;;19.98;;
20154;SDS011;10238;49.556;10.956;2023-06-22T03:20:42;21.35;;;19.85;;
20154;SDS011;10238;49.556;10.956;2023-06-22T03:23:29;21.70;;;20.00;;
20154;SDS011;10238;49.556;10.956;2023-06-22T03:26:17;20.95;;;19.52;;
20154;SDS011;10238;49.556;10.956;2023-06-22T03:29:06;20.38;;;18.80;;
20154;SDS011;10238;49.556;10.956;2023-06-22T03:31:54;19.70;;;18.02;;
20154;SDS011;10238;49.556;10.956;2023-06-22T03:34:41;20.42;;;18.90;;
20154;SDS011;10238;49.556;10.956;2023-06-22T03:37:32;19.92;;;18.52;;
20154;SDS011;10238;49.556;10.956;2023-06-22T03:40:20;24.05;;;22.00;;
20154;SDS011;10238;49.556;10.956;2023-06-22T03:43:14;21.48;;;19.77;;
20154;SDS011;10238;49.556;10.956;2023-06-22T03:46:03;21.40;;;19.58;;
20154;SDS011;10238;49.556;10.956;2023-06-22T03:48:51;27.70;;;25.50;;
20154;SDS011;10238;49.556;10.956;2023-06-22T03:51:38;23.70;;;21.73;;
20154;SDS011;10238;49.556;10.956;2023-06-22T03:54:26;21.23;;;19.58;;
20154;SDS011;10238;49.556;10.956;2023-06-22T03:57:15;23.90;;;22.15;;
20154;SDS011;10238;49.556;10.956;2023-06-22T04:00:02;21.70;;;20.05;;
20154;SDS011;10238;49.556;10.956;2023-06-22T04:02:54;24.00;;;22.25;;
20154;SDS011;10238;49.556;10.956;2023-06-22T04:05:43;25.65;;;23.88;;
20154;SDS011;10238;49.556;10.956;2023-06-22T04:08:31;22.20;;;20.67;;
20154;SDS011;10238;49.556;10.956;2023-06-22T04:11:19;23.45;;;21.65;;
20154;SDS011;10238;49.556;10.956;2023-06-22T04:14:06;19.27;;;17.67;;
20154;SDS011;10238;49.556;10.956;2023-06-22T04:16:55;25.10;;;23.40;;
20154;SDS011;10238;49.556;10.956;2023-06-22T04:19:46;22.65;;;20.85;;
20154;SDS011;10238;49.556;10.956;2023-06-22T04:22:33;22.25;;;20.55;;
20154;SDS011;10238;49.556;10.956;2023-06-22T04:25:21;19.33;;;17.70;;
20154;SDS011;10238;49.556;10.956;2023-06-22T04:31:23;19.17;;;17.48;;
20154;SDS011;10238;49.556;10.956;2023-06-22T04:34:13;16.55;;;15.25;;
20154;SDS011;10238;49.556;10.956;2023-06-22T04:37:03;20.45;;;18.58;;
20154;SDS011;10238;49.556;10.956;2023-06-22T04:39:52;12.85;;;11.63;;
20154;SDS011;10238;49.556;10.956;2023-06-22T04:42:40;14.75;;;13.43;;
20154;SDS011;10238;49.556;10.956;2023-06-22T04:45:39;18.92;;;17.48;;
20154;SDS011;10238;49.556;10.956;2023-06-22T04:48:27;12.35;;;11.00;;
20154;SDS011;10238;49.556;10.956;2023-06-22T04:51:21;15.18;;;13.68;;
20154;SDS011;10238;49.556;10.956;2023-06-22T04:54:16;17.75;;;15.43;;
20154;SDS011;10238;49.556;10.956;2023-06-22T04:57:06;14.02;;;12.32;;
20154;SDS011;10238;49.556;10.956;2023-06-22T04:59:56;14.15;;;10.95;;
20154;SDS011;10238;49.556;10.956;2023-06-22T05:02:47;14.70;;;10.30;;
20154;SDS011;10238;49.556;10.956;2023-06-22T05:05:36;17.02;;;15.27;;
20154;SDS011;10238;49.556;10.956;2023-06-22T05:08:26;15.45;;;14.25;;
20154;SDS011;10238;49.556;10.956;2023-06-22T05:11:16;12.93;;;11.57;;
20154;SDS011;10238;49.556;10.956;2023-06-22T05:14:04;14.88;;;13.45;;
20154;SDS011;10238;49.556;10.956;2023-06-22T05:17:09;13.60;;;12.07;;
20154;SDS011;10238;49.556;10.956;2023-06-22T05:20:01;12.45;;;10.40;;
20154;SDS011;10238;49.556;10.956;2023-06-22T05:23:04;12.43;;;11.13;;
20154;SDS011;10238;49.556;10.956;2023-06-22T05:25:51;14.15;;;12.70;;
20154;SDS011;10238;49.556;10.956;2023-06-22T05:28:42;11.88;;;10.38;;
20154;SDS011;10238;49.556;10.956;2023-06-22T05:31:39;14.55;;;12.68;;
20154;SDS011;10238;49.556;10.956;2023-06-22T05:34:27;12.35;;;11.15;;
20154;SDS011;10238;49.556;10.956;2023-06-22T05:37:15;14.85;;;11.77;;
20154;SDS011;10238;49.556;10.956;2023-06-22T05:40:03;11.55;;;9.57;;
20154;SDS011;10238;49.556;10.956;2023-06-22T05:42:53;15.30;;;11.20;;
20154;SDS011;10238;49.556;10.956;2023-06-22T05:45:42;13.25;;;10.43;;
20154;SDS011;10238;49.556;10.956;2023-06-22T05:48:30;12.32;;;9.43;;
20154;SDS011;10238;49.556;10.956;2023-06-22T05:51:17;14.18;;;9.50;;
20154;SDS011;10238;49.556;10.956;2023-06-22T05:54:05;12.00;;;10.80;;
20154;SDS011;10238;49.556;10.956;2023-06-22T05:56:53;10.90;;;9.80;;
20154;SDS011;10238;49.556;10.956;2023-06-22T05:59:41;17.88;;;10.38;;
20154;SDS011;10238;49.556;10.956;2023-06-22T06:02:30;14.55;;;10.15;;
20154;SDS011;10238;49.556;10.956;2023-06-22T06:05:19;11.80;;;9.50;;
20154;SDS011;10238;49.556;10.956;2023-06-22T06:08:09;10.82;;;9.73;;
20154;SDS011;10238;49.556;10.956;2023-06-22T06:10:58;10.70;;;9.40;;
20154;SDS011;10238;49.556;10.956;2023-06-22T06:13:45;11.75;;;9.88;;
20154;SDS011;10238;49.556;10.956;2023-06-22T06:16:33;9.77;;;8.77;;
20154;SDS011;10238;49.556;10.956;2023-06-22T06:19:22;10.65;;;9.35;;
20154;SDS011;10238;49.556;10.956;2023-06-22T06:22:13;11.25;;;10.20;;
20154;SDS011;10238;49.556;10.956;2023-06-22T06:25:01;13.32;;;9.57;;
20154;SDS011;10238;49.556;10.956;2023-06-22T06:27:49;11.73;;;9.98;;
20154;SDS011;10238;49.556;10.956;2023-06-22T06:30:40;10.37;;;8.37;;
20154;SDS011;10238;49.556;10.956;2023-06-22T06:33:28;10.27;;;9.35;;
20154;SDS011;10238;49.556;10.956;2023-06-22T06:36:18;12.38;;;9.38;;
20154;SDS011;10238;49.556;10.956;2023-06-22T06:42:19;15.07;;;14.02;;
20154;SDS011;10238;49.556;10.956;2023-06-22T06:45:09;19.25;;;17.75;;
20154;SDS011;10238;49.556;10.956;2023-06-22T06:47:57;14.68;;;11.50;;
20154;SDS011;10238;49.556;10.956;2023-06-22T06:50:48;9.32;;;8.43;;
20154;SDS011;10238;49.556;10.956;2023-06-22T06:53:43;11.18;;;9.80;;
20154;SDS011;10238;49.556;10.956;2023-06-22T06:56:31;8.45;;;7.45;;
20154;SDS011;10238;49.556;10.956;2023-06-22T06:59:19;11.25;;;10.00;;
20154;SDS011;10238;49.556;10.956;2023-06-22T07:02:07;17.98;;;16.60;;
20154;SDS011;10238;49.556;10.956;2023-06-22T07:04:55;12.38;;;11.13;;
20154;SDS011;10238;49.556;10.956;2023-06-22T07:07:42;17.83;;;16.17;;
20154;SDS011;10238;49.556;10.956;2023-06-22T07:10:31;18.02;;;16.50;;
20154;SDS011;10238;49.556;10.956;2023-06-22T07:13:19;9.18;;;8.27;;
20154;SDS011;10238;49.556;10.956;2023-06-22T07:16:06;10.65;;;7.97;;
20154;SDS011;10238;49.556;10.956;2023-06-22T07:18:54;13.80;;;12.57;;
20154;SDS011;10238;49.556;10.956;2023-06-22T07:21:42;11.82;;;10.73;;
20154;SDS011;10238;49.556;10.956;2023-06-22T07:24:29;13.35;;;9.30;;
20154;SDS011;10238;49.556;10.956;2023-06-22T07:27:19;11.07;;;10.07;;
20154;SDS011;10238;49.556;10.956;2023-06-22T07:30:07;12.73;;;10.07;;
20154;SDS011;10238;49.556;10.956;2023-06-22T07:32:57;11.98;;;10.77;;
20154;SDS011;10238;49.556;10.956;2023-06-22T07:35:49;13.63;;;12.52;;
20154;SDS011;10238;49.556;10.956;2023-06-22T07:38:41;11.15;;;10.05;;
20154;SDS011;10238;49.556;10.956;2023-06-22T07:41:30;8.45;;;7.65;;
20154;SDS011;10238;49.556;10.956;2023-06-22T07:44:25;10.30;;;7.57;;
20154;SDS011;10238;49.556;10.956;2023-06-22T07:47:13;9.73;;;8.38;;
20154;SDS011;10238;49.556;10.956;2023-06-22T07:50:03;9.45;;;8.57;;
20154;SDS011;10238;49.556;10.956;2023-06-22T07:52:53;9.02;;;7.95;;
20154;SDS011;10238;49.556;10.956;2023-06-22T07:55:40;9.10;;;8.20;;
20154;SDS011;10238;49.556;10.956;2023-06-22T07:58:28;9.52;;;8.52;;
20154;SDS011;10238;49.556;10.956;2023-06-22T08:01:17;22.67;;;21.17;;
20154;SDS011;10238;49.556;10.956;2023-06-22T08:04:06;13.32;;;12.32;;
20154;SDS011;10238;49.556;10.956;2023-06-22T08:06:54;12.40;;;11.40;;
20154;SDS011;10238;49.556;10.956;2023-06-22T08:09:45;10.07;;;9.13;;
20154;SDS011;10238;49.556;10.956;2023-06-22T08:12:35;12.77;;;11.75;;
20154;SDS011;10238;49.556;10.956;2023-06-22T08:15:23;8.65;;;7.45;;
20154;SDS011;10238;49.556;10.956;2023-06-22T08:18:14;9.70;;;8.90;;
20154;SDS011;10238;49.556;10.956;2023-06-22T08:21:02;8.80;;;7.90;;
20154;SDS011;10238;49.556;10.956;2023-06-22T08:23:51;7.63;;;6.93;;
20154;SDS011;10238;49.556;10.956;2023-06-22T08:26:39;11.27;;;10.18;;
20154;SDS011;10238;49.556;10.956;2023-06-22T08:29:26;9.10;;;7.40;;
20154;SDS011;10238;49.556;10.956;2023-06-22T08:32:17;8.45;;;7.63;;
20154;SDS011;10238;49.556;10.956;2023-06-22T08:35:07;11.35;;;10.45;;
20154;SDS011;10238;49.556;10.956;2023-06-22T08:37:55;11.52;;;10.57;;
20154;SDS011;10238;49.556;10.956;2023-06-22T08:40:43;9.18;;;8.38;;
20154;SDS011;10238;49.556;10.956;2023-06-22T08:43:31;7.65;;;6.82;;
20154;SDS011;10238;49.556;10.956;2023-06-22T08:46:19;8.60;;;7.15;;
20154;SDS011;10238;49.556;10.956;2023-06-22T08:49:08;9.18;;;6.20;;
20154;SDS011;10238;49.556;10.956;2023-06-22T08:51:57;9.23;;;7.35;;
20154;SDS011;10238;49.556;10.956;2023-06-22T08:54:45;7.60;;;6.57;;
20154;SDS011;10238;49.556;10.956;2023-06-22T08:57:33;11.38;;;9.68;;
20154;SDS011;10238;49.556;10.956;2023-06-22T09:00:25;11.20;;;10.15;;
20154;SDS011;10238;49.556;10.956;2023-06-22T09:03:15;10.07;;;9.05;;
20154;SDS011;10238;49.556;10.956;2023-06-22T09:09:36;18.75;;;17.27;;
20154;SDS011;10238;49.556;10.956;2023-06-22T09:12:24;7.07;;;6.38;;
20154;SDS011;10238;49.556;10.956;2023-06-22T09:15:13;7.28;;;6.47;;
20154;SDS011;10238;49.556;10.956;2023-06-22T09:18:12;7.13;;;6.40;;
20154;SDS011;10238;49.556;10.956;2023-06-22T09:21:01;16.13;;;14.85;;
20154;SDS011;10238;49.556;10.956;2023-06-22T09:23:49;18.08;;;16.73;;
20154;SDS011;10238;49.556;10.956;2023-06-22T09:26:38;25.88;;;24.27;;
20154;SDS011;10238;49.556;10.956;2023-06-22T09:29:26;22.92;;;21.55;;
20154;SDS011;10238;49.556;10.956;2023-06-22T09:32:14;32.13;;;30.33;;
20154;SDS011;10238;49.556;10.956;2023-06-22T09:35:04;17.67;;;16.25;;
20154;SDS011;10238;49.556;10.956;2023-06-22T09:38:01;11.68;;;10.63;;
20154;SDS011;10238;49.556;10.956;2023-06-22T09:40:49;9.95;;;7.25;;
20154;SDS011;10238;49.556;10.956;2023-06-22T09:43:38;10.77;;;9.90;;
20154;SDS011;10238;49.556;10.956;2023-06-22T09:46:26;8.00;;;7.25;;
20154;SDS011;10238;49.556;10.956;2023-06-22T09:49:14;8.68;;;6.63;;
20154;SDS011;10238;49.556;10.956;2023-06-22T09:52:01;11.10;;;6.88;;
20154;SDS011;10238;49.556;10.956;2023-06-22T09:54:50;8.63;;;6.60;;
20154;SDS011;10238;49.556;10.956;2023-06-22T09:57:38;9.65;;;7.40;;
20154;SDS011;10238;49.556;10.956;2023-06-22T10:00:26;7.93;;;7.22;;
20154;SDS011;10238;49.556;10.956;2023-06-22T10:03:15;11.68;;;7.57;;
20154;SDS011;10238;49.556;10.956;2023-06-22T10:06:03;10.77;;;7.57;;
20154;SDS011;10238;49.556;10.956;2023-06-22T10:08:50;8.50;;;7.70;;
20154;SDS011;10238;49.556;10.956;2023-06-22T10:11:38;8.45;;;7.25;;
20154;SDS011;10238;49.556;10.956;2023-06-22T10:14:26;8.85;;;7.95;;
20154;SDS011;10238;49.556;10.956;2023-06-22T10:17:16;7.82;;;7.07;;
20154;SDS011;10238;49.556;10.956;2023-06-22T10:20:04;8.50;;;6.97;;
20154;SDS011;10238;49.556;10.956;2023-06-22T10:22:57;11.65;;;5.45;;
20154;SDS011;10238;49.556;10.956;2023-06-22T10:25:45;7.50;;;5.75;;
20154;SDS011;10238;49.556;10.956;2023-06-22T10:28:33;10.65;;;5.85;;
20154;SDS011;10238;49.556;10.956;2023-06-22T10:31:20;7.35;;;5.72;;
20154;SDS011;10238;49.556;10.956;2023-06-22T10:34:10;9.88;;;5.70;;
20154;SDS011;10238;49.556;10.956;2023-06-22T10:36:57;10.68;;;8.05;;
20154;SDS011;10238;49.556;10.956;2023-06-22T10:39:55;9.07;;;5.70;;
20154;SDS011;10238;49.556;10.956;2023-06-22T10:42:42;8.75;;;6.70;;
20154;SDS011;10238;49.556;10.956;2023-06-22T10:45:30;13.00;;;11.77;;
20154;SDS011;10238;49.556;10.956;2023-06-22T10:48:19;8.10;;;5.93;;
20154;SDS011;10238;49.556;10.956;2023-06-22T10:51:08;21.90;;;20.48;;
20154;SDS011;10238;49.556;10.956;2023-06-22T10:53:56;23.38;;;21.83;;
20154;SDS011;10238;49.556;10.956;2023-06-22T10:56:44;31.08;;;29.00;;
20154;SDS011;10238;49.556;10.956;2023-06-22T10:59:31;26.05;;;23.92;;
20154;SDS011;10238;49.556;10.956;2023-06-22T11:02:19;12.32;;;11.23;;
20154;SDS011;10238;49.556;10.956;2023-06-22T11:05:07;16.80;;;15.40;;
20154;SDS011;10238;49.556;10.956;2023-06-22T11:07:56;19.63;;;18.13;;
20154;SDS011;10238;49.556;10.956;2023-06-22T11:10:44;41.60;;;38.90;;
20154;SDS011;10238;49.556;10.956;2023-06-22T11:13:32;35.25;;;32.85;;
20154;SDS011;10238;49.556;10.956;2023-06-22T11:16:21;38.97;;;36.95;;
20154;SDS011;10238;49.556;10.956;2023-06-22T11:19:08;39.58;;;37.03;;
20154;SDS011;10238;49.556;10.956;2023-06-22T11:21:56;26.00;;;24.55;;
20154;SDS011;10238;49.556;10.956;2023-06-22T11:27:57;22.00;;;20.52;;
20154;SDS011;10238;49.556;10.956;2023-06-22T11:31:02;10.43;;;9.23;;
20154;SDS011;10238;49.556;10.956;2023-06-22T11:34:10;28.90;;;26.88;;
20154;SDS011;10238;49.556;10.956;2023-06-22T11:36:57;12.57;;;8.77;;
20154;SDS011;10238;49.556;10.956;2023-06-22T11:39:45;28.83;;;27.20;;
20154;SDS011;10238;49.556;10.956;2023-06-22T11:42:39;11.80;;;7.30;;
20154;SDS011;10238;49.556;10.956;2023-06-22T11:45:27;8.70;;;7.82;;
20154;SDS011;10238;49.556;10.956;2023-06-22T11:48:15;10.48;;;9.45;;
20154;SDS011;10238;49.556;10.956;2023-06-22T11:51:03;8.85;;;6.85;;
20154;SDS011;10238;49.556;10.956;2023-06-22T11:53:53;14.07;;;6.50;;
20154;SDS011;10238;49.556;10.956;2023-06-22T11:56:40;12.65;;;9.65;;
20154;SDS011;10238;49.556;10.956;2023-06-22T11:59:42;11.45;;;9.48;;
20154;SDS011;10238;49.556;10.956;2023-06-22T12:02:29;22.90;;;21.10;;
20154;SDS011;10238;49.556;10.956;2023-06-22T12:05:18;12.82;;;5.65;;
20154;SDS011;10238;49.556;10.956;2023-06-22T12:08:07;11.80;;;6.70;;
20154;SDS011;10238;49.556;10.956;2023-06-22T12:10:55;12.60;;;5.75;;
20154;SDS011;10238;49.556;10.956;2023-06-22T12:13:43;12.48;;;6.07;;
20154;SDS011;10238;49.556;10.956;2023-06-22T12:16:32;8.55;;;6.78;;
20154;SDS011;10238;49.556;10.956;2023-06-22T12:19:19;10.57;;;5.60;;
20154;SDS011;10238;49.556;10.956;2023-06-22T12:22:07;15.60;;;5.88;;
20154;SDS011;10238;49.556;10.956;2023-06-22T12:24:55;11.70;;;5.40;;
20154;SDS011;10238;49.556;10.956;2023-06-22T12:27:42;11.85;;;6.03;;
20154;SDS011;10238;49.556;10.956;2023-06-22T12:30:30;11.63;;;5.68;;
20154;SDS011;10238;49.556;10.956;2023-06-22T12:33:21;11.75;;;5.95;;
20154;SDS011;10238;49.556;10.956;2023-06-22T12:36:08;10.38;;;5.45;;
20154;SDS011;10238;49.556;10.956;2023-06-22T12:38:55;10.93;;;5.40;;
20154;SDS011;10238;49.556;10.956;2023-06-22T12:41:44;10.07;;;5.57;;
20154;SDS011;10238;49.556;10.956;2023-06-22T12:44:31;9.15;;;5.20;;
20154;SDS011;10238;49.556;10.956;2023-06-22T12:47:20;11.98;;;5.78;;
20154;SDS011;10238;49.556;10.956;2023-06-22T12:50:09;10.55;;;5.30;;
20154;SDS011;10238;49.556;10.956;2023-06-22T12:52:57;10.07;;;5.28;;
20154;SDS011;10238;49.556;10.956;2023-06-22T12:55:47;9.48;;;4.97;;
20154;SDS011;10238;49.556;10.956;2023-06-22T12:58:35;10.52;;;5.55;;
20154;SDS011;10238;49.556;10.956;2023-06-22T13:01:22;11.10;;;6.00;;
20154;SDS011;10238;49.556;10.956;2023-06-22T13:04:11;12.70;;;5.70;;
20154;SDS011;10238;49.556;10.956;2023-06-22T13:07:02;8.50;;;5.25;;
20154;SDS011;10238;49.556;10.956;2023-06-22T13:10:06;10.13;;;5.65;;
20154;SDS011;10238;49.556;10.956;2023-06-22T13:13:03;14.25;;;5.78;;
20154;SDS011;10238;49.556;10.956;2023-06-22T13:15:51;12.13;;;5.38;;
20154;SDS011;10238;49.556;10.956;2023-06-22T13:18:39;13.48;;;6.82;;
20154;SDS011;10238;49.556;10.956;2023-06-22T13:21:32;11.38;;;6.07;;
20154;SDS011;10238;49.556;10.956;2023-06-22T13:24:23;10.45;;;5.50;;
20154;SDS011;10238;49.556;10.956;2023-06-22T13:27:10;7.70;;;5.40;;
20154;SDS011;10238;49.556;10.956;2023-06-22T13:29:58;20.48;;;5.82;;
20154;SDS011;10238;49.556;10.956;2023-06-22T13:32:45;15.50;;;5.47;;
20154;SDS011;10238;49.556;10.956;2023-06-22T13:35:33;15.43;;;6.15;;
20154;SDS011;10238;49.556;10.956;2023-06-22T13:38:22;8.65;;;5.57;;
20154;SDS011;10238;49.556;10.956;2023-06-22T13:44:20;8.50;;;5.65;;
20154;SDS011;10238;49.556;10.956;2023-06-22T13:47:08;13.13;;;5.72;;
20154;SDS011;10238;49.556;10.956;2023-06-22T13:49:55;9.00;;;5.88;;
20154;SDS011;10238;49.556;10.956;2023-06-22T13:52:44;9.85;;;5.63;;
20154;SDS011;10238;49.556;10.956;2023-06-22T13:55:32;12.75;;;5.57;;
20154;SDS011;10238;49.556;10.956;2023-06-22T13:58:21;8.15;;;5.63;;
20154;SDS011;10238;49.556;10.956;2023-06-22T14:01:09;12.68;;;5.85;;
20154;SDS011;10238;49.556;10.956;2023-06-22T14:04:02;11.02;;;5.70;;
20154;SDS011;10238;49.556;10.956;2023-06-22T14:06:50;14.45;;;6.32;;
20154;SDS011;10238;49.556;10.956;2023-06-22T14:09:41;12.70;;;5.90;;
20154;SDS011;10238;49.556;10.956;2023-06-22T14:12:29;12.63;;;6.43;;
20154;SDS011;10238;49.556;10.956;2023-06-22T14:15:18;10.50;;;5.72;;
20154;SDS011;10238;49.556;10.956;2023-06-22T14:18:06;10.38;;;6.10;;
20154;SDS011;10238;49.556;10.956;2023-06-22T14:20:54;11.55;;;5.93;;
20154;SDS011;10238;49.556;10.956;2023-06-22T14:23:42;11.02;;;5.38;;
20154;SDS011;10238;49.556;10.956;2023-06-22T14:26:35;12.27;;;6.32;;
20154;SDS011;10238;49.556;10.956;2023-06-22T14:29:23;9.07;;;5.20;;
20154;SDS011;10238;49.556;10.956;2023-06-22T14:32:12;12.30;;;5.55;;
20154;SDS011;10238;49.556;10.956;2023-06-22T14:35:03;10.88;;;6.05;;
20154;SDS011;10238;49.556;10.956;2023-06-22T14:37:51;11.10;;;5.95;;
20154;SDS011;10238;49.556;10.956;2023-06-22T14:40:39;13.43;;;5.68;;
20154;SDS011;10238;49.556;10.956;2023-06-22T14:43:46;13.85;;;5.88;;
20154;SDS011;10238;49.556;10.956;2023-06-22T14:46:35;13.23;;;5.70;;
20154;SDS011;10238;49.556;10.956;2023-06-22T14:49:25;11.55;;;6.20;;
20154;SDS011;10238;49.556;10.956;2023-06-22T14:52:13;13.05;;;6.10;;
20154;SDS011;10238;49.556;10.956;2023-06-22T14:55:00;15.60;;;6.45;;
20154;SDS011;10238;49.556;10.956;2023-06-22T14:57:48;12.13;;;6.05;;
20154;SDS011;10238;49.556;10.956;2023-06-22T15:00:36;15.68;;;6.18;;
20154;SDS011;10238;49.556;10.956;2023-06-22T15:03:26;11.27;;;5.90;;
20154;SDS011;10238;49.556;10.956;2023-06-22T15:06:18;13.65;;;6.18;;
20154;SDS011;10238;49.556;10.956;2023-06-22T15:09:05;9.85;;;6.20;;
20154;SDS011;10238;49.556;10.956;2023-06-22T15:11:53;10.70;;;5.97;;
20154;SDS011;10238;49.556;10.956;2023-06-22T15:14:41;9.20;;;5.68;;
20154;SDS011;10238;49.556;10.956;2023-06-22T15:17:29;12.02;;;5.93;;
20154;SDS011;10238;49.556;10.956;2023-06-22T15:20:18;12.70;;;7.10;;
20154;SDS011;10238;49.556;10.956;2023-06-22T15:23:07;11.80;;;7.10;;
20154;SDS011;10238;49.556;10.956;2023-06-22T15:25:56;13.20;;;5.88;;
20154;SDS011;10238;49.556;10.956;2023-06-22T15:28:44;11.10;;;6.68;;
20154;SDS011;10238;49.556;10.956;2023-06-22T15:31:32;12.80;;;6.13;;
20154;SDS011;10238;49.556;10.956;2023-06-22T15:34:20;11.77;;;5.80;;
20154;SDS011;10238;49.556;10.956;2023-06-22T15:37:08;11.73;;;5.80;;
20154;SDS011;10238;49.556;10.956;2023-06-22T15:40:03;12.05;;;7.05;;
20154;SDS011;10238;49.556;10.956;2023-06-22T15:42:53;9.38;;;7.25;;
20154;SDS011;10238;49.556;10.956;2023-06-22T15:45:41;12.43;;;6.68;;
20154;SDS011;10238;49.556;10.956;2023-06-22T15:48:29;13.55;;;6.95;;
20154;SDS011;10238;49.556;10.956;2023-06-22T15:51:17;11.25;;;6.78;;
20154;SDS011;10238;49.556;10.956;2023-06-22T15:54:04;14.13;;;6.65;;
20154;SDS011;10238;49.556;10.956;2023-06-22T15:56:54;15.70;;;5.78;;
20154;SDS011;10238;49.556;10.956;2023-06-22T15:59:45;9.30;;;5.75;;
20154;SDS011;10238;49.556;10.956;2023-06-22T16:02:33;11.90;;;6.45;;
20154;SDS011;10238;49.556;10.956;2023-06-22T16:05:21;12.68;;;5.97;;
20154;SDS011;10238;49.556;10.956;2023-06-22T16:08:09;9.40;;;5.90;;
20154;SDS011;10238;49.556;10.956;2023-06-22T16:10:58;9.82;;;6.90;;
20154;SDS011;10238;49.556;10.956;2023-06-22T16:13:48;9.32;;;6.40;;
20154;SDS011;10238;49.556;10.956;2023-06-22T16:16:36;10.40;;;6.63;;
20154;SDS011;10238;49.556;10.956;2023-06-22T16:19:23;10.23;;;7.13;;
20154;SDS011;10238;49.556;10.956;2023-06-22T16:22:11;13.80;;;6.63;;
20154;SDS011;10238;49.556;10.956;2023-06-22T16:24:59;10.60;;;6.82;;
20154;SDS011;10238;49.556;10.956;2023-06-22T16:27:47;10.77;;;8.27;;
20154;SDS011;10238;49.556;10.956;2023-06-22T16:30:36;15.35;;;8.05;;
20154;SDS011;10238;49.556;10.956;2023-06-22T16:33:24;12.02;;;6.45;;
20154;SDS011;10238;49.556;10.956;2023-06-22T16:36:12;12.95;;;6.30;;
20154;SDS011;10238;49.556;10.956;2023-06-22T16:39:00;11.07;;;6.53;;
20154;SDS011;10238;49.556;10.956;2023-06-22T16:41:49;8.90;;;5.85;;
20154;SDS011;10238;49.556;10.956;2023-06-22T16:47:52;15.85;;;6.95;;
20154;SDS011;10238;49.556;10.956;2023-06-22T16:50:40;10.48;;;5.43;;